Time;durP1;ratioP1;P1;durP2;ratioP2;P2;SDS_P1;SDS_P2;PMS_P1;PMS_P2;Temp;Humidity;BMP_temperature;BMP_pressure;BME280_temperature;BME280_humidity;BME280_pressure;Samples;Min_cycle;Max_cycle;Signal;HPM_P1;HPM_P2
2023/06/03 00:00:21;;;;;;;51.55;46.45;;;;;;;16.68;100.00;100591.94;4994090;28;20050;-89
2023/06/03 00:02:49;;;;;;;51.38;46.25;;;;;;;16.64;100.00;100590.81;4976801;28;20051;-78
2023/06/03 00:05:17;;;;;;;51.80;46.70;;;;;;;16.91;100.00;100600.81;4974380;28;20055;-79
2023/06/03 00:07:47;;;;;;;49.75;44.60;;;;;;;16.96;100.00;100606.22;4979889;28;20078;-78
2023/06/03 00:10:34;;;;;;;53.95;48.60;;;;;;;16.97;100.00;100604.34;4975092;28;20043;-89
2023/06/03 00:13:01;;;;;;;61.70;55.92;;;;;;;16.76;100.00;100592.56;4975620;28;20058;-90
2023/06/03 00:15:27;;;;;;;66.07;59.88;;;;;;;16.44;100.00;100588.66;4981099;28;20049;-89
2023/06/03 00:17:56;;;;;;;59.08;53.17;;;;;;;16.55;100.00;100604.88;4989047;28;20043;-78
2023/06/03 00:20:28;;;;;;;109.53;101.25;;;;;;;16.25;100.00;100603.44;4988537;28;20083;-78
2023/06/03 00:22:56;;;;;;;59.15;53.45;;;;;;;16.60;100.00;100603.06;4975664;28;20439;-78
2023/06/03 00:25:24;;;;;;;56.22;50.53;;;;;;;16.74;100.00;100605.41;4974495;28;20077;-78
2023/06/03 00:27:51;;;;;;;63.42;57.47;;;;;;;16.70;100.00;100610.44;4973272;28;20504;-78
2023/06/03 00:30:34;;;;;;;64.50;58.45;;;;;;;16.37;100.00;100608.66;4974974;28;20571;-78
2023/06/03 00:33:07;;;;;;;61.17;55.47;;;;;;;16.02;100.00;100610.56;4974264;28;20073;-78
2023/06/03 00:35:48;;;;;;;69.70;63.47;;;;;;;16.01;100.00;100605.47;4973362;28;20443;-78
2023/06/03 00:38:28;;;;;;;52.67;47.40;;;;;;;16.11;100.00;100610.16;4981693;28;20408;-78
2023/06/03 00:40:56;;;;;;;71.85;65.20;;;;;;;16.27;100.00;100603.97;4981143;28;20075;-78
2023/06/03 00:43:23;;;;;;;72.30;66.10;;;;;;;16.45;100.00;100597.53;4977295;28;20131;-78
2023/06/03 00:45:50;;;;;;;67.50;61.10;;;;;;;16.37;100.00;100595.25;4973069;28;20435;-78
2023/06/03 00:48:17;;;;;;;56.35;50.75;;;;;;;16.26;100.00;100595.13;4973629;28;20042;-78
2023/06/03 00:50:44;;;;;;;56.88;51.15;;;;;;;16.33;100.00;100591.47;4990597;28;20047;-78
2023/06/03 00:53:12;;;;;;;55.75;50.08;;;;;;;15.96;100.00;100595.47;4973049;28;20459;-78
2023/06/03 00:55:40;;;;;;;58.13;52.33;;;;;;;15.64;100.00;100595.19;4971544;28;20065;-78
2023/06/03 00:58:14;;;;;;;63.05;57.22;;;;;;;15.74;100.00;100599.94;4985784;28;20492;-78
2023/06/03 01:01:19;;;;;;;56.83;51.13;;;;;;;16.00;100.00;100593.13;4991636;28;20056;-78
2023/06/03 01:03:52;;;;;;;62.28;56.38;;;;;;;16.08;100.00;100591.91;4993171;28;20042;-89
2023/06/03 01:06:28;;;;;;;59.15;53.45;;;;;;;15.78;100.00;100591.19;4976630;28;20439;-89
2023/06/03 01:09:02;;;;;;;59.72;54.10;;;;;;;15.71;100.00;100598.56;4991998;28;20117;-89
2023/06/03 01:11:41;;;;;;;55.78;50.17;;;;;;;15.40;100.00;100605.25;4975280;28;20054;-90
2023/06/03 01:14:18;;;;;;;55.03;49.53;;;;;;;15.57;100.00;100591.88;4973720;28;20047;-89
2023/06/03 01:16:48;;;;;;;64.05;57.85;;;;;;;15.31;100.00;100596.78;4973333;28;20059;-89
2023/06/03 01:19:26;;;;;;;53.72;48.53;;;;;;;15.51;100.00;100598.19;4979853;28;20046;-89
2023/06/03 01:22:00;;;;;;;56.60;50.75;;;;;;;15.70;100.00;100588.09;4980014;28;20165;-89
2023/06/03 01:24:30;;;;;;;53.00;47.72;;;;;;;15.78;100.00;100582.34;4979769;28;20049;-88
2023/06/03 01:26:57;;;;;;;54.53;49.13;;;;;;;15.89;100.00;100580.66;4983980;28;20058;-89
2023/06/03 01:29:24;;;;;;;57.17;51.60;;;;;;;15.73;100.00;100593.78;4984658;28;20050;-88
2023/06/03 01:32:00;;;;;;;55.42;50.15;;;;;;;15.79;100.00;100598.19;4992527;28;20089;-89
2023/06/03 01:34:28;;;;;;;52.20;47.00;;;;;;;15.57;100.00;100591.88;4982697;28;20439;-78
2023/06/03 01:36:56;;;;;;;58.30;52.70;;;;;;;15.24;100.00;100601.44;4972677;28;20055;-89
2023/06/03 01:39:26;;;;;;;56.97;51.28;;;;;;;15.45;100.00;100607.97;4990006;28;20057;-89
2023/06/03 01:41:57;;;;;;;57.92;52.03;;;;;;;15.40;100.00;100615.94;4976422;28;20495;-89
2023/06/03 01:44:24;;;;;;;54.38;48.63;;;;;;;15.21;100.00;100617.97;4981630;28;20047;-89
2023/06/03 01:46:51;;;;;;;57.40;51.60;;;;;;;15.46;100.00;100611.47;4990746;28;20054;-89
2023/06/03 01:49:20;;;;;;;53.83;48.70;;;;;;;15.68;100.00;100623.16;4981433;28;20043;-78
2023/06/03 01:51:47;;;;;;;56.55;50.85;;;;;;;15.83;100.00;100611.09;4982610;28;20051;-78
2023/06/03 01:54:25;;;;;;;55.65;50.30;;;;;;;15.78;100.00;100614.47;4974528;28;20054;-78
2023/06/03 01:57:01;;;;;;;53.35;48.05;;;;;;;15.74;100.00;100618.69;4971797;28;20536;-78
2023/06/03 01:59:36;;;;;;;57.45;51.65;;;;;;;15.33;100.00;100632.13;4977683;28;20430;-78
2023/06/03 02:02:03;;;;;;;65.43;59.03;;;;;;;15.87;100.00;100630.94;4994138;28;20050;-89
2023/06/03 02:04:31;;;;;;;60.83;54.88;;;;;;;16.02;100.00;100632.00;4993215;28;20044;-89
2023/06/03 02:07:00;;;;;;;57.75;51.88;;;;;;;16.07;100.00;100631.28;4977002;28;20097;-89
2023/06/03 02:09:39;;;;;;;56.55;50.97;;;;;;;15.76;100.00;100638.00;4995674;28;20046;-89
2023/06/03 02:12:08;;;;;;;55.45;49.47;;;;;;;16.05;100.00;100644.09;4981540;28;20649;-89
2023/06/03 02:14:36;;;;;;;59.22;52.85;;;;;;;16.26;100.00;100637.19;4977610;28;20062;-89
2023/06/03 02:17:04;;;;;;;58.67;52.20;;;;;;;16.30;100.00;100646.34;4996062;28;20058;-89
2023/06/03 02:19:32;;;;;;;53.75;47.95;;;;;;;16.36;100.00;100639.19;4995714;28;20046;-89
2023/06/03 02:22:06;;;;;;;56.85;50.85;;;;;;;16.28;100.00;100632.41;4995633;28;20042;-89
2023/06/03 02:24:33;;;;;;;56.88;48.60;;;;;;;15.44;100.00;100648.38;4991442;28;20073;-89
2023/06/03 02:27:08;;;;;;;54.20;48.60;;;;;;;15.95;100.00;100643.94;4989370;28;20431;-89
2023/06/03 02:29:36;;;;;;;54.72;48.60;;;;;;;16.23;100.00;100641.16;4976707;28;20475;-89
2023/06/03 02:32:03;;;;;;;47.90;42.97;;;;;;;16.03;100.00;100641.66;4976151;28;20050;-89
2023/06/03 02:34:30;;;;;;;50.38;44.97;;;;;;;16.11;100.00;100636.97;4980323;28;20061;-90
2023/06/03 02:36:57;;;;;;;53.50;48.28;;;;;;;15.67;100.00;100648.28;4976113;28;20055;-89
2023/06/03 02:39:23;;;;;;;50.72;45.25;;;;;;;15.62;100.00;100647.38;4991671;28;20057;-89
2023/06/03 02:41:50;;;;;;;52.75;47.67;;;;;;;15.72;100.00;100655.59;4976274;28;20070;-88
2023/06/03 02:44:19;;;;;;;48.38;43.50;;;;;;;15.65;100.00;100653.06;4990393;28;20050;-89
2023/06/03 02:46:48;;;;;;;45.97;41.50;;;;;;;15.39;100.00;100659.00;4984620;28;20507;-89
2023/06/03 02:49:15;;;;;;;47.63;42.47;;;;;;;15.34;100.00;100663.19;4991950;28;20046;-89
2023/06/03 02:51:42;;;;;;;69.63;64.32;;;;;;;14.89;100.00;100661.22;4990953;28;20070;-89
2023/06/03 02:54:14;;;;;;;55.92;50.95;;;;;;;15.06;100.00;100672.00;4989665;28;20049;-89
2023/06/03 02:56:41;;;;;;;47.63;43.10;;;;;;;15.58;100.00;100669.28;4993843;28;20062;-89
2023/06/03 02:59:21;;;;;;;45.80;40.95;;;;;;;15.61;100.00;100664.47;4987596;28;20070;-89
2023/06/03 03:01:47;;;;;;;47.78;43.22;;;;;;;15.35;100.00;100658.66;4979442;28;20046;-89
2023/06/03 03:04:14;;;;;;;46.22;41.90;;;;;;;15.16;100.00;100654.53;4993400;28;20047;-89
2023/06/03 03:06:42;;;;;;;49.05;44.53;;;;;;;15.70;100.00;100663.88;4978184;28;20054;-89
2023/06/03 03:09:09;;;;;;;54.80;49.78;;;;;;;15.70;100.00;100653.19;4977987;28;20561;-90
2023/06/03 03:11:37;;;;;;;67.05;61.65;;;;;;;15.73;100.00;100654.53;4975948;28;20503;-89
2023/06/03 03:14:10;;;;;;;47.60;43.13;;;;;;;15.47;100.00;100666.66;4992109;28;20060;-79
2023/06/03 03:16:39;;;;;;;47.20;43.00;;;;;;;15.76;100.00;100660.25;4994359;28;20419;-78
2023/06/03 03:19:07;;;;;;;48.35;43.90;;;;;;;15.89;100.00;100667.16;4990615;28;20082;-78
2023/06/03 03:21:34;;;;;;;45.30;40.55;;;;;;;15.84;100.00;100675.09;4993435;28;20058;-78
2023/06/03 03:24:01;;;;;;;47.33;42.95;;;;;;;16.02;100.00;100658.78;4994183;28;20133;-78
2023/06/03 03:26:29;;;;;;;45.72;40.80;;;;;;;15.40;100.00;100660.59;4988364;28;20056;-88
2023/06/03 03:28:57;;;;;;;46.83;42.33;;;;;;;15.79;100.00;100665.13;4976757;28;20055;-89
2023/06/03 03:31:30;;;;;;;44.90;40.35;;;;;;;15.72;100.00;100666.31;4980056;28;20053;-89
2023/06/03 03:34:02;;;;;;;46.47;42.03;;;;;;;15.91;100.00;100673.06;4994502;28;20054;-89
2023/06/03 03:36:30;;;;;;;48.75;44.08;;;;;;;16.02;100.00;100664.16;4994747;28;20046;-89
2023/06/03 03:39:02;;;;;;;50.10;45.30;;;;;;;16.18;100.00;100670.56;4979073;28;20138;-89
2023/06/03 03:41:29;;;;;;;48.55;43.70;;;;;;;16.21;100.00;100658.53;4976752;28;20085;-89
2023/06/03 03:43:57;;;;;;;46.45;42.05;;;;;;;16.21;100.00;100672.75;4979191;28;20062;-80
2023/06/03 03:46:24;;;;;;;47.78;43.58;;;;;;;16.29;100.00;100668.84;4981827;28;20046;-78
2023/06/03 03:48:51;;;;;;;48.95;44.55;;;;;;;16.54;100.00;100681.81;4987134;28;20058;-79
2023/06/03 03:51:38;;;;;;;45.08;40.72;;;;;;;16.39;100.00;100682.41;4981924;28;20050;-78
2023/06/03 03:54:05;;;;;;;42.53;38.78;;;;;;;16.40;100.00;100697.44;4986201;28;20070;-78
2023/06/03 03:56:34;;;;;;;43.05;39.22;;;;;;;16.60;100.00;100691.56;4974726;28;20065;-89
2023/06/03 03:59:05;;;;;;;41.42;37.63;;;;;;;16.71;100.00;100689.84;4989769;28;20572;-78
2023/06/03 04:01:39;;;;;;;43.22;39.30;;;;;;;16.96;100.00;100688.59;4988674;28;20050;-89
2023/06/03 04:04:11;;;;;;;42.00;38.17;;;;;;;16.76;100.00;100694.47;4991807;28;20450;-89
2023/06/03 04:06:40;;;;;;;43.22;39.53;;;;;;;16.89;100.00;100694.94;4976683;28;20471;-89
2023/06/03 04:09:11;;;;;;;43.70;39.03;;;;;;;17.15;100.00;100698.75;4982212;28;20051;-89
2023/06/03 04:11:40;;;;;;;42.05;38.28;;;;;;;16.87;100.00;100706.97;4993662;28;20050;-89
2023/06/03 04:14:10;;;;;;;38.22;34.63;;;;;;;17.03;100.00;100711.47;4981684;28;20059;-90
2023/06/03 04:17:06;;;;;;;39.10;35.72;;;;;;;17.20;100.00;100724.03;4987209;28;20072;-88
2023/06/03 04:19:37;;;;;;;41.95;38.25;;;;;;;17.49;100.00;100749.66;4985417;28;20057;-90
2023/06/03 04:22:07;;;;;;;47.58;43.03;;;;;;;17.59;100.00;100747.06;4993678;28;20062;-89
2023/06/03 04:24:43;;;;;;;49.25;44.75;;;;;;;17.61;100.00;100744.94;4982080;28;20050;-89
2023/06/03 04:27:12;;;;;;;55.65;50.63;;;;;;;17.73;100.00;100758.25;4974621;28;20042;-89
2023/06/03 04:29:51;;;;;;;60.35;54.90;;;;;;;18.04;100.00;100762.06;4976472;28;20050;-89
2023/06/03 04:32:19;;;;;;;66.07;60.13;;;;;;;18.12;100.00;100773.41;4974208;28;20057;-89
2023/06/03 04:34:53;;;;;;;71.15;64.72;;;;;;;18.35;100.00;100773.09;4985787;28;20062;-90
2023/06/03 04:37:22;;;;;;;71.55;64.75;;;;;;;18.24;100.00;100772.19;4975736;28;20435;-89
2023/06/03 04:39:49;;;;;;;70.95;64.25;;;;;;;18.26;100.00;100774.63;4985732;28;20494;-89
2023/06/03 04:42:17;;;;;;;66.80;60.38;;;;;;;18.29;100.00;100785.69;4984240;28;20046;-88
2023/06/03 04:44:48;;;;;;;64.38;58.65;;;;;;;18.83;100.00;100789.34;4978827;28;20510;-87
2023/06/03 04:47:17;;;;;;;68.50;61.78;;;;;;;18.67;100.00;100789.22;4983700;28;20113;-89
2023/06/03 04:49:48;;;;;;;66.20;60.03;;;;;;;18.71;100.00;100797.59;4977941;28;20109;-89
2023/06/03 04:52:15;;;;;;;61.90;56.53;;;;;;;18.26;100.00;100778.13;4972194;28;20126;-78
2023/06/03 04:54:44;;;;;;;65.88;60.38;;;;;;;18.64;100.00;100788.91;4981609;28;20426;-78
2023/06/03 04:57:10;;;;;;;64.68;58.72;;;;;;;18.71;100.00;100793.00;4978175;28;20523;-78
2023/06/03 04:59:37;;;;;;;66.50;60.72;;;;;;;18.86;100.00;100795.03;4988295;28;20054;-78
2023/06/03 05:02:05;;;;;;;66.65;61.00;;;;;;;19.45;100.00;100788.59;4989281;28;20141;-78
2023/06/03 05:04:46;;;;;;;59.33;54.03;;;;;;;18.98;100.00;100792.16;4978634;28;20134;-78
2023/06/03 05:07:13;;;;;;;57.47;52.28;;;;;;;19.16;100.00;100778.25;4974650;28;20569;-78
2023/06/03 05:09:40;;;;;;;60.47;55.08;;;;;;;19.27;100.00;100776.41;4989847;28;20085;-78
2023/06/03 05:12:14;;;;;;;59.55;54.33;;;;;;;19.37;100.00;100779.16;4986947;28;20054;-78
2023/06/03 05:14:47;;;;;;;57.03;51.85;;;;;;;19.42;100.00;100781.84;4990880;28;20058;-78
2023/06/03 05:17:20;;;;;;;60.15;54.53;;;;;;;19.68;100.00;100790.06;4991724;28;20514;-78
2023/06/03 05:19:47;;;;;;;58.97;53.53;;;;;;;19.37;100.00;100781.84;4991439;28;20057;-89
2023/06/03 05:22:14;;;;;;;60.08;55.05;;;;;;;19.52;100.00;100791.06;4974236;28;20053;-89
2023/06/03 05:24:41;;;;;;;61.70;56.38;;;;;;;19.55;100.00;100788.66;4987888;28;20438;-90
2023/06/03 05:27:08;;;;;;;54.22;49.47;;;;;;;19.45;100.00;100797.53;4982092;28;20470;-90
2023/06/03 05:29:36;;;;;;;56.03;51.17;;;;;;;19.51;100.00;100803.72;4988111;28;20438;-89
2023/06/03 05:32:09;;;;;;;55.20;50.50;;;;;;;19.79;100.00;100801.69;4992065;28;20514;-78
2023/06/03 05:34:37;;;;;;;60.97;55.15;;;;;;;19.82;100.00;100810.06;4983851;28;20039;-78
2023/06/03 05:37:04;;;;;;;63.65;56.92;;;;;;;19.83;100.00;100816.25;4987684;28;20051;-78
2023/06/03 05:39:31;;;;;;;57.50;51.95;;;;;;;19.36;100.00;100822.50;4987455;28;20472;-78
2023/06/03 05:42:12;;;;;;;54.40;49.53;;;;;;;20.36;100.00;100822.28;4987762;28;20058;-77
2023/06/03 05:44:40;;;;;;;41.05;37.17;;;;;;;21.08;100.00;100817.69;4982258;28;20490;-79
2023/06/03 05:47:08;;;;;;;43.10;39.10;;;;;;;20.16;100.00;100817.69;4978801;28;20054;-89
2023/06/03 05:49:35;;;;;;;44.03;40.00;;;;;;;20.55;100.00;100819.91;4982673;28;20058;-89
2023/06/03 05:52:14;;;;;;;43.55;39.55;;;;;;;21.18;100.00;100817.69;4986102;28;20057;-90
2023/06/03 05:54:41;;;;;;;40.47;36.67;;;;;;;20.84;100.00;100825.56;4989964;28;20050;-78
2023/06/03 05:57:08;;;;;;;36.72;33.25;;;;;;;21.06;100.00;100817.16;4990238;28;20541;-78
2023/06/03 05:59:35;;;;;;;38.15;34.67;;;;;;;21.52;100.00;100822.47;4985551;28;20050;-88
2023/06/03 06:02:03;;;;;;;35.17;31.77;;;;;;;21.78;100.00;100808.81;4989319;28;20452;-89
2023/06/03 06:04:30;;;;;;;29.23;26.40;;;;;;;21.43;100.00;100816.81;4991041;28;20039;-88
2023/06/03 06:06:57;;;;;;;30.23;27.25;;;;;;;21.85;100.00;100815.53;4985765;28;20057;-88
2023/06/03 06:09:24;;;;;;;29.23;26.20;;;;;;;22.06;100.00;100812.69;4987227;28;20085;-89
2023/06/03 06:11:56;;;;;;;28.50;26.08;;;;;;;22.26;100.00;100809.88;4991971;28;20434;-78
2023/06/03 06:14:23;;;;;;;45.97;29.45;;;;;;;22.51;100.00;100814.31;4988003;28;20542;-89
2023/06/03 06:16:52;;;;;;;27.05;24.58;;;;;;;22.56;100.00;100819.66;4988657;28;20050;-89
2023/06/03 06:19:26;;;;;;;24.95;22.60;;;;;;;22.35;100.00;100810.91;4986067;28;20057;-89
2023/06/03 06:21:53;;;;;;;24.77;22.30;;;;;;;22.84;100.00;100818.09;4990299;28;20049;-88
2023/06/03 06:24:21;;;;;;;22.73;20.83;;;;;;;23.37;100.00;100822.69;4987252;28;20042;-89
2023/06/03 06:26:50;;;;;;;23.65;21.60;;;;;;;22.59;100.00;100824.53;4980809;28;20061;-91
2023/06/03 06:29:19;;;;;;;22.58;20.63;;;;;;;22.72;100.00;100814.13;4986987;28;20532;-88
2023/06/03 06:31:46;;;;;;;23.33;21.25;;;;;;;23.14;100.00;100820.78;4986393;28;20073;-88
2023/06/03 06:34:20;;;;;;;59.15;23.42;;;;;;;22.34;100.00;100816.63;4988982;28;20153;-89
2023/06/03 06:36:52;;;;;;;22.98;20.88;;;;;;;22.91;100.00;100819.66;4985035;28;20046;-90
2023/06/03 06:39:46;;;;;;;24.33;22.42;;;;;;;22.56;100.00;100829.69;4981119;28;20408;-89
2023/06/03 06:42:16;;;;;;;23.60;21.58;;;;;;;22.62;100.00;100829.38;4989192;28;20046;-90
2023/06/03 06:44:46;;;;;;;25.48;23.25;;;;;;;22.77;100.00;100828.44;4987724;28;20046;-88
2023/06/03 06:47:13;;;;;;;42.10;39.25;;;;;;;22.93;100.00;100831.00;4984756;28;20046;-90
2023/06/03 06:49:44;;;;;;;21.30;19.50;;;;;;;22.44;100.00;100837.38;4991955;28;20054;-89
2023/06/03 06:52:14;;;;;;;48.47;45.17;;;;;;;22.66;100.00;100826.88;4993488;28;20105;-90
2023/06/03 06:54:42;;;;;;;42.85;39.15;;;;;;;22.09;100.00;100828.41;4994701;28;20052;-90
2023/06/03 06:57:19;;;;;;;24.63;22.42;;;;;;;22.00;100.00;100836.28;4982462;28;20129;-90
2023/06/03 06:59:48;;;;;;;41.33;38.35;;;;;;;22.19;100.00;100839.16;4994034;28;20054;-90
2023/06/03 07:02:15;;;;;;;24.63;21.73;;;;;;;22.08;100.00;100845.69;4992985;28;20147;-90
2023/06/03 07:05:00;;;;;;;35.28;32.78;;;;;;;22.55;100.00;100849.75;4984933;28;20057;-89
2023/06/03 07:07:34;;;;;;;22.65;20.58;;;;;;;22.29;100.00;100847.19;4994124;28;20441;-89
2023/06/03 07:10:01;;;;;;;23.67;21.63;;;;;;;22.44;100.00;100856.31;4992190;28;20053;-89
2023/06/03 07:12:38;;;;;;;23.70;21.60;;;;;;;22.40;100.00;100861.47;4993978;28;20050;-88
2023/06/03 07:15:06;;;;;;;28.17;25.88;;;;;;;22.73;100.00;100861.78;4978275;28;20055;-78
2023/06/03 07:17:33;;;;;;;24.13;22.10;;;;;;;22.29;100.00;100868.84;4985415;28;20042;-78
2023/06/03 07:20:00;;;;;;;24.08;22.13;;;;;;;22.06;100.00;100870.31;4986259;28;20046;-78
2023/06/03 07:22:30;;;;;;;34.58;31.02;;;;;;;22.17;100.00;100880.00;4990015;28;20050;-90
2023/06/03 07:24:57;;;;;;;24.20;22.08;;;;;;;21.95;100.00;100882.28;4985492;28;20051;-91
2023/06/03 07:27:29;;;;;;;30.10;27.67;;;;;;;22.64;100.00;100884.03;4980922;28;20066;-90
2023/06/03 07:29:58;;;;;;;25.30;23.10;;;;;;;23.01;100.00;100882.66;4983633;28;20054;-76
2023/06/03 07:32:25;;;;;;;25.45;23.15;;;;;;;22.35;100.00;100894.78;4982566;28;20046;-86
2023/06/03 07:34:52;;;;;;;24.30;22.13;;;;;;;22.29;100.00;100895.91;4993157;28;20050;-86
2023/06/03 07:37:19;;;;;;;26.05;24.05;;;;;;;22.96;100.00;100895.44;4992923;28;20081;-85
2023/06/03 07:39:48;;;;;;;24.55;22.27;;;;;;;21.95;100.00;100901.19;4991307;28;20057;-85
2023/06/03 07:42:20;;;;;;;26.13;23.63;;;;;;;22.27;100.00;100906.22;4989535;28;20054;-86
2023/06/03 07:44:49;;;;;;;26.58;24.08;;;;;;;22.12;100.00;100901.66;4984231;28;20047;-86
2023/06/03 07:47:18;;;;;;;27.98;23.27;;;;;;;22.15;100.00;100897.59;4985829;28;20046;-85
2023/06/03 07:49:47;;;;;;;25.40;22.95;;;;;;;22.04;100.00;100906.84;4983987;28;20112;-86
2023/06/03 07:52:18;;;;;;;25.58;23.45;;;;;;;22.20;100.00;100903.00;4993602;28;20141;-86
2023/06/03 07:54:44;;;;;;;24.75;22.42;;;;;;;22.56;100.00;100903.56;4982742;28;20062;-86
2023/06/03 07:57:25;;;;;;;25.38;22.63;;;;;;;22.07;100.00;100909.00;4991438;28;20061;-86
2023/06/03 07:59:53;;;;;;;25.73;23.73;;;;;;;22.00;100.00;100903.88;4987787;28;20499;-85
2023/06/03 08:02:21;;;;;;;24.75;22.58;;;;;;;22.47;100.00;100896.34;4976588;28;20547;-85
2023/06/03 08:04:49;;;;;;;24.65;22.33;;;;;;;22.05;100.00;100913.84;4991687;28;20062;-85
2023/06/03 08:07:31;;;;;;;24.77;22.42;;;;;;;21.86;100.00;100906.38;4976879;28;20100;-85
2023/06/03 08:10:22;;;;;;;25.40;23.15;;;;;;;22.27;100.00;100906.22;4987924;28;20054;-85
2023/06/03 08:13:07;;;;;;;25.23;22.75;;;;;;;22.22;100.00;100908.13;4992242;28;20486;-85
2023/06/03 08:15:36;;;;;;;25.35;23.17;;;;;;;22.57;100.00;100905.22;4973967;28;20045;-86
2023/06/03 08:18:08;;;;;;;24.70;22.67;;;;;;;22.50;100.00;100903.91;4973510;28;20047;-78
2023/06/03 08:20:42;;;;;;;24.30;22.17;;;;;;;22.58;100.00;100896.00;4986124;28;20061;-78
2023/06/03 08:23:10;;;;;;;24.90;22.67;;;;;;;22.40;100.00;100902.88;4973369;28;20306;-85
2023/06/03 08:25:46;;;;;;;25.45;23.15;;;;;;;22.50;100.00;100903.91;4973880;28;20431;-85
2023/06/03 08:28:14;;;;;;;24.58;22.33;;;;;;;22.64;100.00;100900.28;4992139;28;20046;-85
2023/06/03 08:30:41;;;;;;;24.35;22.20;;;;;;;22.42;100.00;100913.41;4975098;28;20441;-85
2023/06/03 08:33:08;;;;;;;24.45;22.50;;;;;;;22.95;100.00;100896.53;4975658;28;20053;-85
2023/06/03 08:35:40;;;;;;;24.00;21.90;;;;;;;22.83;100.00;100907.72;4976236;28;20054;-78
2023/06/03 08:38:09;;;;;;;24.58;22.25;;;;;;;22.96;100.00;100911.69;4973383;28;20054;-78
2023/06/03 08:40:43;;;;;;;23.50;21.33;;;;;;;22.73;100.00;100913.22;4978433;28;20050;-84
2023/06/03 08:43:09;;;;;;;23.40;21.40;;;;;;;22.91;100.00;100909.81;4992546;28;20047;-85
2023/06/03 08:45:53;;;;;;;23.60;21.50;;;;;;;22.79;100.00;100918.31;4989846;28;20053;-77
2023/06/03 08:48:28;;;;;;;23.50;21.45;;;;;;;22.67;100.00;100917.84;4988499;28;20042;-78
2023/06/03 08:51:04;;;;;;;25.60;23.00;;;;;;;22.83;100.00;100919.34;4989664;28;20054;-77
2023/06/03 08:53:38;;;;;;;25.55;23.25;;;;;;;23.09;100.00;100924.59;4983577;28;20078;-78
2023/06/03 08:56:06;;;;;;;27.05;22.92;;;;;;;23.08;100.00;100925.66;4988041;28;20062;-78
2023/06/03 08:58:43;;;;;;;29.65;23.38;;;;;;;23.29;100.00;100931.72;4979779;28;20056;-78
2023/06/03 09:01:28;;;;;;;28.30;21.60;;;;;;;23.13;100.00;100930.25;4980306;28;20061;-78
2023/06/03 09:03:57;;;;;;;26.75;23.13;;;;;;;23.31;100.00;100926.81;4984260;28;20058;-84
2023/06/03 09:06:25;;;;;;;23.17;20.92;;;;;;;23.09;100.00;100928.09;4990730;28;20058;-78
2023/06/03 09:08:54;;;;;;;42.90;38.63;;;;;;;23.21;100.00;100930.44;4642385;28;9999804;-85
2023/06/03 09:11:24;;;;;;;25.58;22.17;;;;;;;23.40;100.00;100925.09;4988518;28;20054;-85
2023/06/03 09:13:52;;;;;;;24.13;21.02;;;;;;;23.58;100.00;100928.19;4989540;28;20054;-84
2023/06/03 09:16:20;;;;;;;23.70;21.38;;;;;;;23.65;100.00;100932.16;4981533;28;20058;-84
2023/06/03 09:18:51;;;;;;;23.67;21.35;;;;;;;23.57;100.00;100931.97;4983496;28;20098;-83
2023/06/03 09:21:19;;;;;;;24.15;21.90;;;;;;;23.69;100.00;100933.22;4980512;28;20049;-84
2023/06/03 09:23:46;;;;;;;22.92;20.90;;;;;;;23.48;100.00;100923.66;4973945;28;21728;-84
2023/06/03 09:26:13;;;;;;;26.88;21.38;;;;;;;23.59;100.00;100932.50;4985737;28;20054;-84
2023/06/03 09:28:47;;;;;;;38.25;22.95;;;;;;;23.62;100.00;100929.22;4979427;28;20081;-85
2023/06/03 09:31:14;;;;;;;24.23;21.90;;;;;;;23.60;100.00;100937.66;4989783;28;20825;-84
2023/06/03 09:33:42;;;;;;;24.20;22.00;;;;;;;23.64;100.00;100927.03;4984126;28;20046;-84
2023/06/03 09:36:11;;;;;;;24.77;21.52;;;;;;;23.76;100.00;100927.47;4988984;28;20046;-84
2023/06/03 09:38:55;;;;;;;28.80;21.35;;;;;;;23.82;100.00;100926.31;4984106;28;20043;-79
2023/06/03 09:41:23;;;;;;;81.57;28.55;;;;;;;24.07;100.00;100927.88;4991115;28;20052;-77
2023/06/03 09:43:54;;;;;;;40.22;36.55;;;;;;;24.13;100.00;100934.84;4982124;28;20043;-78
2023/06/03 09:46:21;;;;;;;29.55;23.85;;;;;;;24.31;100.00;100927.03;4989010;28;20426;-77
2023/06/03 09:48:48;;;;;;;28.30;21.38;;;;;;;24.13;100.00;100939.47;4988109;28;20065;-78
2023/06/03 09:51:16;;;;;;;25.13;22.17;;;;;;;24.15;100.00;100934.56;4982616;28;20730;-78
2023/06/03 09:53:43;;;;;;;23.25;20.58;;;;;;;24.30;100.00;100928.09;4977051;28;20053;-87
2023/06/03 09:56:28;;;;;;;32.63;21.65;;;;;;;24.05;100.00;100942.84;4986723;28;20055;-81
2023/06/03 09:59:14;;;;;;;24.08;21.70;;;;;;;23.96;100.00;100934.53;4977705;28;20042;-86
2023/06/03 10:01:41;;;;;;;23.50;21.10;;;;;;;24.10;100.00;100934.63;4991331;28;20051;-88
2023/06/03 10:04:38;;;;;;;29.05;22.00;;;;;;;24.08;100.00;100939.53;4986057;28;20121;-88
2023/06/03 10:07:21;;;;;;;24.30;21.88;;;;;;;24.41;100.00;100933.09;4990637;28;20066;-78
2023/06/03 10:09:49;;;;;;;22.70;20.33;;;;;;;24.26;100.00;100930.59;4990907;28;20050;-79
2023/06/03 10:12:29;;;;;;;24.42;22.02;;;;;;;24.92;100.00;100931.56;4988703;28;20753;-79
2023/06/03 10:15:09;;;;;;;29.00;21.80;;;;;;;25.00;100.00;100939.03;4990048;28;20403;-78
2023/06/03 10:17:46;;;;;;;30.67;23.35;;;;;;;24.95;100.00;100935.59;4990603;28;20050;-78
2023/06/03 10:20:32;;;;;;;29.25;22.00;;;;;;;24.69;100.00;100933.28;4989669;28;20061;-81
2023/06/03 10:23:02;;;;;;;26.05;21.60;;;;;;;25.05;100.00;100927.25;4992607;28;20054;-79
2023/06/03 10:25:32;;;;;;;24.58;21.67;;;;;;;24.78;100.00;100936.94;4993720;28;20058;-79
2023/06/03 10:28:01;;;;;;;23.70;21.10;;;;;;;25.07;100.00;100931.28;4993808;28;20047;-79
2023/06/03 10:30:31;;;;;;;26.83;20.40;;;;;;;25.29;100.00;100935.28;4988053;28;20078;-89
2023/06/03 10:33:02;;;;;;;23.48;21.25;;;;;;;25.10;100.00;100932.59;4982968;28;20047;-89
2023/06/03 10:35:32;;;;;;;24.67;22.58;;;;;;;25.23;100.00;100945.44;4987423;28;20122;-90
2023/06/03 10:38:07;;;;;;;25.20;22.80;;;;;;;25.20;100.00;100939.81;4982571;28;20103;-79
2023/06/03 10:40:35;;;;;;;24.73;22.45;;;;;;;25.17;100.00;100937.69;4985520;28;20046;-79
2023/06/03 10:43:04;;;;;;;28.42;21.75;;;;;;;25.56;100.00;100934.53;4981919;28;20094;-79
2023/06/03 10:45:31;;;;;;;24.77;22.33;;;;;;;25.78;100.00;100937.38;4987095;28;20105;-79
2023/06/03 10:48:01;;;;;;;24.45;22.20;;;;;;;25.59;100.00;100933.91;4986890;28;20053;-79
2023/06/03 10:50:41;;;;;;;23.42;20.90;;;;;;;25.28;100.00;100942.66;4988514;28;20573;-79
2023/06/03 10:53:24;;;;;;;22.90;20.73;;;;;;;25.41;100.00;100938.31;4992417;28;20069;-79
2023/06/03 10:56:05;;;;;;;23.55;21.38;;;;;;;24.93;100.00;100927.72;4991210;28;20077;-79
2023/06/03 10:58:32;;;;;;;25.30;22.60;;;;;;;25.26;100.00;100931.25;4991208;28;20050;-79
2023/06/03 11:01:00;;;;;;;23.27;21.05;;;;;;;25.12;100.00;100931.22;4978851;28;20054;-79
2023/06/03 11:03:28;;;;;;;23.70;21.50;;;;;;;25.27;100.00;100937.53;4990952;28;20121;-79
2023/06/03 11:06:30;;;;;;;23.83;21.45;;;;;;;25.35;100.00;100934.09;4993345;28;20414;-79
2023/06/03 11:09:04;;;;;;;23.73;21.37;;;;;;;25.31;100.00;100933.91;4988010;28;20065;-79
2023/06/03 11:11:58;;;;;;;24.15;21.95;;;;;;;25.50;100.00;100933.00;4989222;28;20133;-79
2023/06/03 11:14:54;;;;;;;25.27;22.27;;;;;;;25.38;100.00;100938.94;4984675;28;20513;-79
2023/06/03 11:17:21;;;;;;;25.30;22.75;;;;;;;25.67;100.00;100924.25;4991797;28;20063;-78
2023/06/03 11:19:50;;;;;;;24.10;21.67;;;;;;;25.75;100.00;100916.22;4991459;28;20065;-79